createdAt,value
2018-09-24T00:09:06.707Z,15.37
2018-09-24T00:24:39.878Z,15.38
2018-09-24T00:40:13.072Z,15.54
2018-09-24T00:55:47.331Z,15.36
2018-09-24T01:11:21.361Z,15.27
2018-09-24T01:26:54.683Z,15.00
2018-09-24T01:42:27.503Z,14.72
2018-09-24T01:58:00.745Z,14.71
2018-09-24T02:13:34.696Z,14.56
2018-09-24T02:29:07.595Z,14.74
2018-09-24T02:44:41.105Z,14.60
2018-09-24T03:00:16.010Z,14.23
2018-09-24T03:16:00.174Z,14.03
2018-09-24T03:31:32.969Z,13.83
2018-09-24T03:47:07.021Z,13.73
2018-09-24T04:02:40.973Z,13.77
2018-09-24T04:18:20.338Z,13.64
2018-09-24T04:34:00.932Z,14.26
2018-09-24T04:49:40.652Z,15.93
2018-09-24T05:05:23.879Z,18.10
2018-09-24T05:21:03.389Z,20.65
2018-09-24T05:36:42.764Z,22.92
2018-09-24T05:52:21.784Z,25.00
2018-09-24T06:08:01.221Z,26.13
2018-09-24T06:23:40.244Z,26.16
2018-09-24T06:39:19.324Z,27.43
2018-09-24T06:54:58.545Z,28.50
2018-09-24T07:10:38.263Z,27.45
2018-09-24T07:26:17.523Z,28.06
2018-09-24T07:41:56.460Z,29.17
2018-09-24T07:57:35.412Z,27.48
2018-09-24T08:13:14.795Z,28.50
2018-09-24T08:28:54.493Z,29.84
2018-09-24T08:44:33.392Z,29.91
2018-09-24T09:00:12.389Z,30.69
2018-09-24T09:15:56.710Z,31.72
2018-09-24T09:31:35.745Z,31.25
2018-09-24T09:47:16.235Z,33.15
2018-09-24T10:02:56.067Z,34.24
2018-09-24T10:18:36.341Z,33.01
2018-09-24T10:34:15.772Z,34.23
2018-09-24T10:49:55.653Z,32.30
2018-09-24T11:05:34.863Z,33.36
2018-09-24T11:21:14.009Z,31.92
2018-09-24T11:36:54.080Z,33.20
2018-09-24T11:52:32.967Z,29.09
2018-09-24T12:08:12.197Z,24.97
2018-09-24T12:23:51.968Z,24.01
2018-09-24T12:39:31.348Z,22.16
2018-09-24T12:55:11.223Z,21.74
2018-09-24T13:10:50.951Z,18.98
2018-09-24T13:26:30.181Z,17.49
2018-09-24T13:42:09.232Z,16.80
2018-09-24T13:57:48.993Z,16.51
2018-09-24T14:13:28.297Z,15.28
2018-09-24T14:29:08.054Z,14.76
2018-09-24T14:44:47.082Z,14.72
2018-09-24T15:00:26.425Z,14.27
2018-09-24T15:16:06.041Z,14.05
2018-09-24T15:31:45.727Z,13.89
2018-09-24T15:47:24.642Z,13.68
2018-09-24T16:03:03.785Z,13.10
2018-09-24T16:18:42.887Z,12.91
2018-09-24T16:34:22.591Z,12.41
2018-09-24T16:50:01.784Z,11.89
2018-09-24T17:05:41.814Z,12.05
2018-09-24T17:21:22.747Z,11.73
2018-09-24T17:37:01.494Z,11.19
2018-09-24T17:52:40.287Z,11.02
2018-09-24T18:08:19.566Z,10.77
2018-09-24T18:23:59.231Z,10.73
2018-09-24T18:39:38.258Z,10.68
2018-09-24T18:55:17.113Z,10.57
2018-09-24T19:10:56.123Z,10.66
2018-09-24T19:26:35.435Z,10.42
2018-09-24T19:42:14.512Z,10.27
2018-09-24T19:57:53.535Z,10.25
2018-09-24T20:13:32.446Z,10.19
2018-09-24T20:29:11.213Z,9.03
2018-09-24T20:44:50.263Z,8.62
2018-09-24T21:00:29.966Z,8.42
2018-09-24T21:16:09.084Z,8.14
2018-09-24T21:31:49.649Z,8.29
2018-09-24T21:47:28.670Z,8.06
2018-09-24T22:03:07.601Z,7.82
2018-09-24T22:18:47.990Z,7.57
2018-09-24T22:34:28.547Z,7.54
2018-09-24T22:50:07.539Z,7.32
2018-09-24T23:05:46.508Z,7.40
2018-09-24T23:21:25.729Z,7.45
2018-09-24T23:37:04.844Z,7.44
2018-09-24T23:52:43.583Z,7.42
